Time;durP1;ratioP1;P1;durP2;ratioP2;P2;SDS_P1;SDS_P2;PMS_P1;PMS_P2;Temp;Humidity;BMP_temperature;BMP_pressure;BME280_temperature;BME280_humidity;BME280_pressure;Samples;Min_cycle;Max_cycle;Signal;HPM_P1;HPM_P2
2022/06/25 02:34:48;;;;;;;1.17;0.77;;;;;;;18.52;69.33;96500.03;6160401;23;20060;-79
2022/06/25 02:37:16;;;;;;;3.70;0.80;;;;;;;18.49;69.32;96503.91;6159932;23;20026;-78
2022/06/25 02:39:43;;;;;;;2.25;0.80;;;;;;;18.46;69.24;96499.13;6160208;23;20044;-77
2022/06/25 02:42:11;;;;;;;1.88;0.90;;;;;;;18.43;69.27;96502.22;6159629;23;20063;-77
2022/06/25 02:44:38;;;;;;;1.85;0.75;;;;;;;18.42;69.21;96505.09;6131047;23;20049;-77
2022/06/25 02:55:18;;;;;;;0.85;0.80;;;;;;;18.23;69.57;96513.16;6156610;23;20055;-79
2022/06/25 03:03:14;;;;;;;2.47;1.05;;;;;;;18.23;69.46;96512.34;6167884;23;20052;-79
2022/06/25 03:05:41;;;;;;;1.92;0.82;;;;;;;18.20;69.18;96518.13;6171989;23;20022;-79
2022/06/25 03:08:12;;;;;;;1.75;0.95;;;;;;;18.14;69.37;96519.84;6142893;23;20041;-79
2022/06/25 03:10:47;;;;;;;1.00;0.88;;;;;;;18.09;69.48;96520.53;6144057;23;20093;-80
2022/06/25 03:13:15;;;;;;;;;;;;;;;18.08;69.58;96526.03;6145105;23;20022;-79
2022/06/25 04:25:49;;;;;;;1.35;1.10;;;;;;;17.35;70.75;96538.56;6152408;23;20080;-80
2022/06/25 04:31:07;;;;;;;2.90;1.48;;;;;;;17.39;70.50;96536.31;6178705;23;20033;-81
2022/06/25 04:33:36;;;;;;;5.65;1.23;;;;;;;17.40;70.56;96551.06;6179133;23;20021;-81
2022/06/25 04:36:05;;;;;;;4.80;1.77;;;;;;;17.41;70.67;96557.97;6179519;23;20022;-82
2022/06/25 04:38:33;;;;;;;2.10;1.00;;;;;;;17.40;70.64;96551.06;6178326;23;20048;-82
2022/06/25 04:51:59;;;;;;;1.48;1.00;;;;;;;17.30;70.87;96549.81;6175371;23;20277;-81
2022/06/25 04:54:29;;;;;;;3.50;1.35;;;;;;;17.32;71.28;96548.75;6170848;23;20014;-81
2022/06/25 04:57:02;;;;;;;0.85;0.85;;;;;;;17.36;71.30;96549.91;6171603;23;20036;-81
2022/06/25 04:59:39;;;;;;;1.73;0.90;;;;;;;17.40;70.93;96557.16;6166814;23;20029;-81
2022/06/25 05:02:08;;;;;;;0.70;0.70;;;;;;;17.45;71.09;96559.94;6119650;23;20029;-81
2022/06/25 05:04:37;;;;;;;1.67;0.77;;;;;;;17.54;71.12;96564.88;6142493;23;20046;-80
2022/06/25 05:07:09;;;;;;;1.77;0.80;;;;;;;17.59;70.80;96565.78;6141535;23;20028;-80
2022/06/25 05:09:42;;;;;;;1.73;0.93;;;;;;;17.61;70.40;96563.72;6142242;23;20025;-81
2022/06/25 05:13:11;;;;;;;0.98;0.80;;;;;;;17.65;70.43;96566.72;6144192;23;20045;-80
2022/06/25 05:15:02;;;;;;;0.82;0.82;;;;;;;17.72;70.34;96564.78;6142216;23;20045;-80
2022/06/25 05:17:34;;;;;;;0.60;0.60;;;;;;;17.74;69.67;96567.22;6141888;23;20022;-80
2022/06/25 05:20:11;;;;;;;0.80;0.77;;;;;;;17.82;72.39;96578.25;6143698;23;20022;-82
2022/06/25 05:22:50;;;;;;;4.07;0.90;;;;;;;17.88;70.23;96571.25;6142426;23;20018;-80
2022/06/25 05:25:23;;;;;;;2.22;0.80;;;;;;;17.89;68.75;96571.03;6142976;23;20026;-81
2022/06/25 05:27:54;;;;;;;1.77;0.65;;;;;;;17.95;69.68;96577.25;6146567;23;20022;-81
2022/06/25 05:33:11;;;;;;;0.98;0.90;;;;;;;18.07;70.25;96593.88;6143351;23;20069;-81
2022/06/25 05:35:40;;;;;;;3.00;0.77;;;;;;;18.09;68.10;96581.25;6146454;23;20029;-80
2022/06/25 05:38:14;;;;;;;0.50;0.50;;;;;;;18.16;70.66;96582.97;6144373;23;20025;-80
2022/06/25 05:40:43;;;;;;;1.08;0.50;;;;;;;18.16;67.71;96578.47;6119448;23;20014;-81
2022/06/25 05:43:15;;;;;;;0.75;0.60;;;;;;;18.19;68.22;96582.50;6143868;23;20025;-80
2022/06/25 05:45:44;;;;;;;0.70;0.70;;;;;;;18.26;70.55;96583.19;6145146;23;20018;-81
2022/06/25 05:48:12;;;;;;;0.50;0.50;;;;;;;18.33;69.65;96581.25;6147796;23;20025;-80
2022/06/25 05:50:41;;;;;;;4.40;1.00;;;;;;;18.39;68.86;96584.78;6130683;23;20029;-80
2022/06/25 05:53:15;;;;;;;2.25;0.70;;;;;;;18.42;69.61;96589.59;6090741;23;20029;-80
2022/06/25 05:55:47;;;;;;;1.55;0.50;;;;;;;18.49;70.06;96588.44;6118495;23;20033;-80
2022/06/25 05:58:15;;;;;;;0.57;0.57;;;;;;;18.55;70.54;96593.84;6117954;23;20033;-80
2022/06/25 06:00:42;;;;;;;1.00;0.80;;;;;;;18.58;69.35;96588.88;6119226;23;20088;-80
2022/06/25 06:03:10;;;;;;;1.23;0.50;;;;;;;18.63;68.71;96596.94;6114146;23;20018;-80
2022/06/25 06:05:39;;;;;;;1.52;1.15;;;;;;;18.68;69.69;96593.59;6113372;23;20022;-80
2022/06/25 06:08:08;;;;;;;0.65;0.55;;;;;;;18.74;68.11;96597.94;6113981;23;20022;-79
2022/06/25 06:10:37;;;;;;;0.50;0.50;;;;;;;18.79;69.13;96600.72;6116023;23;20022;-80
2022/06/25 06:13:05;;;;;;;2.40;0.60;;;;;;;18.84;69.15;96603.44;6119149;23;20481;-80
2022/06/25 06:15:33;;;;;;;2.67;0.57;;;;;;;18.88;69.63;96603.78;6115393;23;20018;-80
2022/06/25 06:18:01;;;;;;;1.00;0.60;;;;;;;18.90;66.77;96599.88;6118061;23;20033;-80
2022/06/25 06:20:29;;;;;;;0.75;0.70;;;;;;;18.90;66.54;96602.50;6123038;23;20027;-80
2022/06/25 06:22:57;;;;;;;2.00;0.98;;;;;;;18.96;66.18;96607.88;6121866;23;20019;-80
2022/06/25 06:25:24;;;;;;;0.80;0.63;;;;;;;18.99;66.16;96605.59;6121140;23;20108;-80
2022/06/25 06:27:54;;;;;;;0.55;0.55;;;;;;;19.02;66.13;96610.44;6118758;23;20019;-80
2022/06/25 06:30:21;;;;;;;0.52;0.52;;;;;;;19.07;64.92;96617.66;6119635;23;20018;-81
2022/06/25 06:32:49;;;;;;;1.30;0.50;;;;;;;19.09;65.11;96605.00;6120988;23;20023;-80
2022/06/25 06:35:17;;;;;;;0.50;0.50;;;;;;;19.12;65.44;96610.59;6117060;23;20030;-80
2022/06/25 06:37:44;;;;;;;0.60;0.60;;;;;;;19.19;66.72;96614.94;6116755;23;20014;-81
2022/06/25 06:40:14;;;;;;;1.85;0.38;;;;;;;19.21;65.62;96604.94;6120786;23;20022;-81
2022/06/25 06:42:42;;;;;;;0.80;0.70;;;;;;;19.23;64.23;96610.81;6120835;23;20018;-80
2022/06/25 06:45:11;;;;;;;0.60;0.60;;;;;;;19.28;65.87;96619.63;6118513;23;20017;-81
2022/06/25 06:47:39;;;;;;;0.88;0.70;;;;;;;19.31;65.39;96603.28;6118753;23;20026;-81
2022/06/25 06:50:08;;;;;;;0.95;0.73;;;;;;;19.37;64.05;96608.66;6122650;23;20391;-82
2022/06/25 06:52:36;;;;;;;0.55;0.40;;;;;;;19.43;64.78;96615.66;6119962;23;20022;-81
2022/06/25 06:55:05;;;;;;;2.58;0.50;;;;;;;19.49;64.38;96614.72;6123839;23;20007;-82
2022/06/25 06:57:33;;;;;;;0.68;0.60;;;;;;;19.54;64.46;96618.22;6123244;23;20029;-82
2022/06/25 07:00:01;;;;;;;0.40;0.40;;;;;;;19.61;65.01;96625.22;6120733;23;20018;-83
2022/06/25 07:02:30;;;;;;;3.38;0.60;;;;;;;19.65;63.25;96618.41;6121098;23;20030;-81
2022/06/25 07:04:58;;;;;;;1.45;0.57;;;;;;;19.69;63.41;96619.53;6123842;23;20034;-82
2022/06/25 07:07:25;;;;;;;0.82;0.70;;;;;;;19.75;64.33;96621.28;6123220;23;20018;-82
2022/06/25 07:09:53;;;;;;;1.35;0.80;;;;;;;19.84;65.11;96624.31;6122877;23;20010;-82
2022/06/25 07:12:20;;;;;;;0.63;0.60;;;;;;;19.91;63.63;96624.97;6118316;23;20023;-82
2022/06/25 07:14:48;;;;;;;3.75;0.82;;;;;;;19.99;66.08;96616.63;6116708;23;20025;-81
2022/06/25 07:17:16;;;;;;;0.55;0.55;;;;;;;20.06;63.80;96622.56;6115460;23;20018;-82
2022/06/25 07:19:45;;;;;;;2.03;1.10;;;;;;;20.13;63.01;96620.53;6109767;23;20062;-82
2022/06/25 07:22:12;;;;;;;1.65;0.80;;;;;;;20.20;62.85;96615.06;6105577;23;20023;-82
2022/06/25 07:24:40;;;;;;;1.95;0.50;;;;;;;20.28;62.55;96613.88;6104223;23;20073;-82
2022/06/25 07:27:07;;;;;;;3.03;0.80;;;;;;;20.34;62.17;96616.34;6112030;23;20022;-82
2022/06/25 07:29:35;;;;;;;0.88;0.88;;;;;;;20.38;61.28;96611.38;6118258;23;20023;-84
2022/06/25 07:32:03;;;;;;;1.83;1.10;;;;;;;20.41;61.13;96610.88;6109826;23;20026;-82
2022/06/25 07:34:31;;;;;;;1.42;0.90;;;;;;;20.46;61.65;96602.19;6103326;23;20018;-82
2022/06/25 07:37:00;;;;;;;2.47;0.68;;;;;;;20.56;61.69;96612.94;6103438;23;20102;-82
2022/06/25 07:39:27;;;;;;;2.83;0.93;;;;;;;20.62;61.46;96601.38;6103471;23;20046;-83
2022/06/25 07:41:55;;;;;;;2.00;0.88;;;;;;;20.67;60.60;96609.41;6106411;23;20026;-83
2022/06/25 07:44:23;;;;;;;0.80;0.80;;;;;;;20.71;60.45;96599.13;6107931;23;20038;-83
2022/06/25 07:46:51;;;;;;;4.55;1.27;;;;;;;20.76;60.12;96596.53;6108189;23;20022;-82
2022/06/25 07:49:18;;;;;;;2.72;1.70;;;;;;;20.79;59.80;96606.63;6108288;23;20045;-82
2022/06/25 07:51:59;;;;;;;2.30;1.60;;;;;;;20.83;59.59;96599.78;6136194;23;20022;-83
2022/06/25 07:54:30;;;;;;;5.03;3.60;;;;;;;20.92;59.80;96605.44;6136171;23;20018;-82
2022/06/25 07:56:58;;;;;;;7.82;3.55;;;;;;;20.97;60.38;96598.38;6137917;23;20370;-83
2022/06/25 07:59:26;;;;;;;2.17;1.58;;;;;;;21.03;59.36;96591.25;6136763;23;20022;-82
2022/06/25 08:01:53;;;;;;;2.45;1.33;;;;;;;21.11;59.62;96592.69;6137105;23;20025;-83
2022/06/25 08:04:21;;;;;;;1.60;1.30;;;;;;;21.18;59.31;96588.75;6136987;23;20052;-83
2022/06/25 08:06:50;;;;;;;5.13;2.58;;;;;;;21.24;58.52;96596.78;6137760;23;20529;-83
2022/06/25 08:09:17;;;;;;;4.75;2.38;;;;;;;21.23;58.30;96590.69;6138611;23;20037;-83
2022/06/25 08:11:46;;;;;;;4.03;2.60;;;;;;;21.22;58.13;96583.78;6135621;23;20029;-83
2022/06/25 08:14:14;;;;;;;4.22;2.70;;;;;;;21.25;59.60;96588.56;6135311;23;20041;-83
2022/06/25 08:16:42;;;;;;;6.18;3.72;;;;;;;21.32;58.87;96583.88;6136168;23;20022;-83
2022/06/25 08:19:09;;;;;;;7.75;4.68;;;;;;;21.41;58.41;96589.56;6138212;23;20105;-82
2022/06/25 08:21:38;;;;;;;5.25;2.60;;;;;;;21.46;58.25;96586.16;6136831;23;20450;-83
2022/06/25 08:24:06;;;;;;;5.13;2.60;;;;;;;21.49;57.96;96585.66;6137574;23;20025;-83
2022/06/25 08:26:34;;;;;;;3.20;2.30;;;;;;;21.54;58.64;96591.00;6136813;23;20374;-82
2022/06/25 08:29:03;;;;;;;2.63;1.83;;;;;;;21.63;58.23;96591.34;6136075;23;20078;-83
2022/06/25 08:31:30;;;;;;;2.28;1.88;;;;;;;21.71;57.34;96583.72;6136400;23;20029;-82
2022/06/25 08:33:58;;;;;;;3.75;3.05;;;;;;;21.81;57.57;96575.84;6137171;23;20022;-83
2022/06/25 08:36:25;;;;;;;1.85;1.65;;;;;;;21.91;56.58;96574.28;6136343;23;20076;-83
2022/06/25 08:38:53;;;;;;;2.22;1.52;;;;;;;21.99;56.33;96576.50;6135365;23;20033;-82
2022/06/25 08:41:20;;;;;;;3.22;1.58;;;;;;;22.10;56.35;96588.78;6134513;23;20053;-83
2022/06/25 08:43:48;;;;;;;3.58;1.80;;;;;;;22.19;56.49;96581.97;6136407;23;20049;-83
2022/06/25 08:46:19;;;;;;;1.75;1.63;;;;;;;22.27;56.66;96582.56;6136126;23;20206;-83
2022/06/25 08:48:50;;;;;;;2.88;2.25;;;;;;;22.31;56.91;96586.31;6136008;23;20332;-83
2022/06/25 08:51:21;;;;;;;2.40;1.50;;;;;;;22.34;54.72;96581.25;6135626;23;20074;-82
2022/06/25 08:53:49;;;;;;;1.70;1.55;;;;;;;22.42;53.85;96570.16;6135428;23;20022;-83
2022/06/25 08:56:17;;;;;;;4.28;1.60;;;;;;;22.53;54.49;96586.94;6134810;23;20054;-83
2022/06/25 08:58:45;;;;;;;2.90;1.33;;;;;;;22.62;53.25;96572.09;6135403;23;20070;-83
2022/06/25 09:01:13;;;;;;;1.52;1.35;;;;;;;22.70;53.65;96570.81;6135098;23;20041;-82
2022/06/25 09:03:43;;;;;;;1.50;1.00;;;;;;;22.78;53.71;96569.50;6135449;23;20022;-82
2022/06/25 09:06:13;;;;;;;1.75;0.98;;;;;;;22.85;53.95;96562.09;6136066;23;20026;-82
2022/06/25 09:08:42;;;;;;;1.83;1.40;;;;;;;22.92;53.69;96559.97;6136343;23;20084;-82
2022/06/25 09:11:10;;;;;;;2.13;1.50;;;;;;;22.97;52.54;96559.19;6135361;23;20082;-83
2022/06/25 09:13:38;;;;;;;3.17;1.50;;;;;;;23.00;51.50;96564.84;6134474;23;20052;-83
2022/06/25 09:16:06;;;;;;;4.25;1.40;;;;;;;23.08;52.41;96565.38;6132716;23;20100;-82
2022/06/25 09:18:34;;;;;;;2.15;1.25;;;;;;;23.13;50.97;96562.72;6133228;23;20024;-83
2022/06/25 09:21:05;;;;;;;3.67;1.52;;;;;;;23.17;50.75;96559.25;6132961;23;20076;-81
2022/06/25 09:23:35;;;;;;;3.00;1.67;;;;;;;23.23;49.61;96560.09;6132232;23;20429;-82
2022/06/25 09:26:06;;;;;;;2.05;1.58;;;;;;;23.30;49.94;96547.31;6132612;23;20028;-83
2022/06/25 09:28:36;;;;;;;3.25;1.65;;;;;;;23.38;49.78;96551.34;6138917;23;20022;-83
2022/06/25 09:31:03;;;;;;;13.13;10.55;;;;;;;23.45;49.42;96544.66;6142236;23;20022;-83
2022/06/25 09:33:32;;;;;;;3.85;2.47;;;;;;;23.52;48.84;96549.72;6141579;23;20022;-83
2022/06/25 09:36:00;;;;;;;1.67;1.58;;;;;;;23.57;49.31;96548.94;6140942;23;20026;-82
2022/06/25 09:38:29;;;;;;;2.25;1.40;;;;;;;23.61;49.94;96547.34;6141084;23;20030;-83
2022/06/25 09:40:58;;;;;;;2.53;1.33;;;;;;;23.65;49.56;96548.41;6140263;23;20018;-83
2022/06/25 09:43:27;;;;;;;3.08;1.25;;;;;;;23.71;48.55;96552.66;6140278;23;20022;-83
2022/06/25 09:45:57;;;;;;;2.75;2.00;;;;;;;23.77;48.36;96548.97;6140195;23;20398;-82
2022/06/25 09:48:26;;;;;;;5.18;3.50;;;;;;;23.81;48.21;96542.06;6141339;23;20076;-82
2022/06/25 09:51:05;;;;;;;5.70;4.55;;;;;;;23.89;48.46;96547.91;6140684;23;20022;-83
2022/06/25 09:53:36;;;;;;;4.82;1.73;;;;;;;23.95;48.14;96542.28;6141797;23;20085;-83
2022/06/25 09:56:04;;;;;;;1.50;1.30;;;;;;;24.05;48.01;96549.47;6141543;23;20021;-82
2022/06/25 09:58:32;;;;;;;2.10;1.08;;;;;;;24.11;46.62;96545.72;6152588;23;20022;-82
2022/06/25 10:01:02;;;;;;;2.03;1.00;;;;;;;24.19;46.53;96539.84;6152705;23;20022;-83
2022/06/25 10:03:30;;;;;;;1.02;0.80;;;;;;;24.27;46.48;96549.16;6145086;23;20117;-82
2022/06/25 10:05:59;;;;;;;1.88;1.17;;;;;;;24.34;44.86;96543.56;6140452;23;20077;-83
2022/06/25 10:08:30;;;;;;;0.90;0.70;;;;;;;24.41;45.53;96544.84;6141172;23;20021;-83
2022/06/25 10:11:00;;;;;;;2.45;1.15;;;;;;;24.47;45.07;96532.31;6140635;23;20014;-83
2022/06/25 10:13:29;;;;;;;2.25;1.30;;;;;;;24.52;45.22;96531.53;6140788;23;20053;-82
2022/06/25 10:15:57;;;;;;;4.32;1.10;;;;;;;24.56;45.74;96530.69;6140698;23;20107;-82
2022/06/25 10:18:26;;;;;;;2.08;1.10;;;;;;;24.60;45.28;96518.41;6139971;23;20028;-82
2022/06/25 10:20:54;;;;;;;0.98;0.90;;;;;;;24.63;45.79;96531.19;6139089;23;20358;-82
2022/06/25 10:23:22;;;;;;;1.35;0.85;;;;;;;24.65;45.56;96521.06;6139907;23;20033;-83
2022/06/25 10:25:50;;;;;;;1.02;0.90;;;;;;;24.66;45.02;96524.50;6139623;23;20045;-83
2022/06/25 10:28:26;;;;;;;6.20;4.55;;;;;;;24.67;44.60;96518.13;6138999;23;20056;-83
2022/06/25 10:30:56;;;;;;;2.00;1.58;;;;;;;24.68;44.39;96520.50;6138405;23;20097;-82
2022/06/25 10:33:26;;;;;;;2.22;1.13;;;;;;;24.71;44.31;96516.50;6147275;23;20022;-83
2022/06/25 10:35:57;;;;;;;3.13;1.33;;;;;;;24.74;44.83;96515.94;6151157;23;20026;-82
2022/06/25 10:38:26;;;;;;;1.20;1.08;;;;;;;24.77;45.05;96520.72;6142083;23;20046;-83
2022/06/25 10:40:59;;;;;;;2.60;1.35;;;;;;;24.79;44.86;96512.44;6141231;23;20029;-83
2022/06/25 10:43:39;;;;;;;1.17;1.08;;;;;;;24.78;44.11;96513.53;6140256;23;20026;-82
2022/06/25 10:46:37;;;;;;;2.25;1.15;;;;;;;24.82;43.84;96509.25;6139676;23;20022;-82
2022/06/25 10:49:07;;;;;;;2.03;0.90;;;;;;;24.88;44.58;96505.47;6140030;23;20474;-82
2022/06/25 10:51:46;;;;;;;1.02;0.80;;;;;;;24.91;42.42;96510.25;6148690;23;20029;-77
2022/06/25 10:54:35;;;;;;;1.48;0.90;;;;;;;24.92;42.70;96495.03;6154742;23;20025;-79
2022/06/25 10:57:04;;;;;;;1.63;0.90;;;;;;;24.96;42.79;96488.88;6156012;23;20048;-79
2022/06/25 10:59:47;;;;;;;1.02;0.77;;;;;;;25.00;42.13;96487.25;6155153;23;20040;-80
2022/06/25 11:02:18;;;;;;;3.03;0.77;;;;;;;25.08;41.98;96488.56;6155390;23;20025;-79
2022/06/25 11:04:52;;;;;;;1.25;0.90;;;;;;;25.15;40.67;96482.91;6156216;23;20021;-79
2022/06/25 11:07:22;;;;;;;0.88;0.63;;;;;;;25.21;41.27;96479.13;6156316;23;20096;-79
2022/06/25 11:09:55;;;;;;;3.13;0.88;;;;;;;25.27;40.31;96478.81;6155177;23;20021;-79
2022/06/25 11:12:24;;;;;;;2.00;0.75;;;;;;;25.35;41.28;96474.75;6154268;23;20025;-79
2022/06/25 11:15:00;;;;;;;0.80;0.80;;;;;;;25.38;40.66;96476.06;6154594;23;20033;-78
2022/06/25 11:17:28;;;;;;;1.35;0.88;;;;;;;25.41;40.32;96470.19;6154704;23;20097;-77
2022/06/25 11:20:03;;;;;;;0.95;0.70;;;;;;;25.45;40.37;96471.19;6154228;23;20469;-80
2022/06/25 11:22:31;;;;;;;0.68;0.60;;;;;;;25.46;40.00;96473.59;6154565;23;20049;-80
2022/06/25 11:30:36;;;;;;;1.58;0.80;;;;;;;25.54;41.34;96463.38;6154068;23;20026;-78
2022/06/25 11:33:04;;;;;;;1.35;1.02;;;;;;;25.57;40.98;96463.63;6154518;23;20025;-80
2022/06/25 11:35:39;;;;;;;0.90;0.90;;;;;;;25.61;40.90;96469.19;6155986;23;20026;-80
2022/06/25 11:38:14;;;;;;;0.73;0.63;;;;;;;25.62;41.15;96462.78;6155741;23;20017;-78
2022/06/25 11:40:42;;;;;;;2.25;1.30;;;;;;;25.63;40.96;96461.72;6155788;23;20096;-77
2022/06/25 11:43:10;;;;;;;1.88;1.23;;;;;;;25.64;40.58;96460.63;6155850;23;20097;-78
2022/06/25 11:45:50;;;;;;;2.05;0.80;;;;;;;25.66;38.82;96461.13;6156098;23;20021;-80
2022/06/25 11:48:17;;;;;;;1.23;0.60;;;;;;;25.63;38.94;96462.50;6156334;23;20089;-78
2022/06/25 11:50:45;;;;;;;1.38;0.70;;;;;;;25.63;38.76;96456.38;6155874;23;20419;-80
2022/06/25 11:53:13;;;;;;;0.82;0.45;;;;;;;25.65;38.21;96454.22;6155912;23;20030;-77
2022/06/25 11:55:41;;;;;;;0.70;0.70;;;;;;;25.66;38.02;96445.09;6156271;23;20017;-80
2022/06/25 11:58:09;;;;;;;0.80;0.80;;;;;;;25.68;38.88;96454.44;6156175;23;20017;-80
2022/06/25 12:00:36;;;;;;;0.75;0.73;;;;;;;25.71;39.80;96450.38;6155326;23;20096;-78
2022/06/25 12:03:06;;;;;;;2.40;1.25;;;;;;;25.70;38.83;96456.81;6155953;23;20021;-79
2022/06/25 12:05:34;;;;;;;6.88;4.32;;;;;;;25.70;38.32;96452.28;6157409;23;20089;-80
2022/06/25 12:08:02;;;;;;;1.25;1.15;;;;;;;25.75;38.87;96454.09;6156982;23;20104;-81
2022/06/25 12:10:30;;;;;;;2.08;0.70;;;;;;;25.77;38.05;96448.47;6156534;23;20097;-79
2022/06/25 12:12:58;;;;;;;1.25;0.75;;;;;;;25.79;38.63;96449.00;6155423;23;20017;-79
2022/06/25 12:15:29;;;;;;;3.33;0.80;;;;;;;25.85;38.88;96447.84;6155956;23;20030;-79
2022/06/25 12:18:05;;;;;;;1.87;0.60;;;;;;;25.90;38.64;96445.16;6156182;23;20025;-80
2022/06/25 12:20:33;;;;;;;0.85;0.55;;;;;;;25.93;39.35;96444.56;6155696;23;20095;-79
2022/06/25 12:23:02;;;;;;;1.85;0.70;;;;;;;25.97;38.74;96448.28;6155819;23;20022;-79
2022/06/25 12:25:33;;;;;;;1.15;0.73;;;;;;;25.98;37.72;96433.06;6155825;23;20057;-79
2022/06/25 12:28:01;;;;;;;1.15;0.68;;;;;;;25.96;37.82;96436.00;6155375;23;20021;-79
2022/06/25 12:30:30;;;;;;;0.50;0.50;;;;;;;25.94;37.00;96427.47;6155607;23;20052;-79
2022/06/25 12:33:06;;;;;;;1.58;0.93;;;;;;;25.96;37.76;96422.66;6155298;23;20025;-79
2022/06/25 12:35:34;;;;;;;1.63;0.70;;;;;;;25.98;37.75;96409.00;6155751;23;20028;-79
2022/06/25 12:38:04;;;;;;;0.80;0.50;;;;;;;26.02;37.63;96415.34;6155113;23;20104;-79
2022/06/25 12:40:33;;;;;;;0.98;0.75;;;;;;;26.05;37.45;96412.13;6154820;23;20021;-78
2022/06/25 12:43:01;;;;;;;1.77;0.52;;;;;;;26.10;38.10;96417.41;6155802;23;20026;-79
2022/06/25 12:45:31;;;;;;;1.63;0.95;;;;;;;26.17;37.58;96417.84;6155235;23;20349;-78
2022/06/25 12:47:59;;;;;;;1.80;1.20;;;;;;;26.21;37.25;96413.50;6155727;23;20021;-80
2022/06/25 12:50:30;;;;;;;0.80;0.60;;;;;;;26.26;37.00;96423.34;6155046;23;20064;-78
2022/06/25 12:53:07;;;;;;;1.70;0.77;;;;;;;26.30;37.74;96419.84;6155590;23;20021;-78
2022/06/25 12:55:35;;;;;;;0.68;0.68;;;;;;;26.35;37.41;96413.63;6155780;23;20077;-79
2022/06/25 12:58:03;;;;;;;1.83;0.75;;;;;;;26.39;37.06;96417.31;6155186;23;20022;-80
2022/06/25 13:00:32;;;;;;;2.28;0.77;;;;;;;26.44;38.05;96413.78;6154741;23;20478;-80
2022/06/25 13:02:59;;;;;;;0.82;0.60;;;;;;;26.49;37.76;96413.69;6155254;23;20080;-80
2022/06/25 13:05:29;;;;;;;0.85;0.70;;;;;;;26.53;36.58;96417.41;6155449;23;20033;-80
2022/06/25 13:07:56;;;;;;;0.63;0.60;;;;;;;26.55;36.99;96420.56;6155445;23;20027;-80
2022/06/25 13:10:24;;;;;;;0.43;0.43;;;;;;;26.57;36.25;96414.97;6154782;23;20100;-80
2022/06/25 13:12:53;;;;;;;0.82;0.52;;;;;;;26.60;36.48;96409.03;6155584;23;20045;-80
2022/06/25 13:15:22;;;;;;;2.35;0.73;;;;;;;26.60;36.56;96409.81;6154911;23;20096;-80
2022/06/25 13:17:50;;;;;;;0.50;0.50;;;;;;;26.59;36.25;96416.28;6155133;23;20023;-80
2022/06/25 13:20:18;;;;;;;1.95;0.80;;;;;;;26.60;36.64;96404.47;6154312;23;20022;-80
2022/06/25 13:22:48;;;;;;;0.47;0.47;;;;;;;26.62;36.89;96410.34;6155020;23;20081;-78
2022/06/25 13:25:15;;;;;;;0.60;0.60;;;;;;;26.67;37.74;96409.47;6155295;23;20026;-79
2022/06/25 13:27:46;;;;;;;0.90;0.60;;;;;;;26.71;38.54;96411.25;6154890;23;20048;-80
2022/06/25 13:30:13;;;;;;;0.63;0.40;;;;;;;26.74;37.33;96398.38;6154591;23;20403;-80
2022/06/25 13:33:01;;;;;;;0.68;0.50;;;;;;;26.73;37.42;96397.59;6155043;23;20353;-80
2022/06/25 13:35:29;;;;;;;0.50;0.40;;;;;;;26.70;37.20;96398.97;6155290;23;20029;-78
2022/06/25 13:37:58;;;;;;;0.75;0.75;;;;;;;26.67;37.74;96404.91;6154784;23;20493;-79
2022/06/25 13:40:26;;;;;;;0.50;0.50;;;;;;;26.59;37.32;96400.22;6154301;23;20028;-77
2022/06/25 13:42:54;;;;;;;4.22;0.75;;;;;;;26.54;38.11;96400.25;6155094;23;20049;-80
2022/06/25 13:45:22;;;;;;;0.52;0.52;;;;;;;26.51;37.88;96400.84;6154904;23;20025;-80
2022/06/25 13:47:49;;;;;;;0.52;0.50;;;;;;;26.45;38.04;96392.06;6154495;23;20021;-80
2022/06/25 13:50:17;;;;;;;1.17;0.73;;;;;;;26.37;38.31;96387.41;6154442;23;20412;-79
2022/06/25 13:52:44;;;;;;;2.05;0.80;;;;;;;26.35;38.61;96396.75;6155288;23;20032;-79
2022/06/25 13:55:13;;;;;;;1.80;0.60;;;;;;;26.33;38.53;96396.25;6155039;23;20025;-79
2022/06/25 13:57:43;;;;;;;1.13;0.60;;;;;;;26.29;38.70;96396.06;6154430;23;20021;-79
2022/06/25 14:00:12;;;;;;;0.73;0.73;;;;;;;26.26;38.60;96391.25;6154602;23;20025;-79
2022/06/25 14:02:40;;;;;;;0.60;0.60;;;;;;;26.25;38.92;96392.34;6154562;23;20068;-79
2022/06/25 14:05:08;;;;;;;0.65;0.50;;;;;;;26.23;38.47;96389.97;6154532;23;20076;-79
2022/06/25 14:07:35;;;;;;;0.90;0.80;;;;;;;26.21;38.74;96386.78;6154789;23;20098;-79
2022/06/25 14:10:04;;;;;;;1.83;0.80;;;;;;;26.20;38.97;96385.19;6153968;23;20461;-79
2022/06/25 14:12:33;;;;;;;1.75;0.77;;;;;;;26.16;38.75;96378.84;6154987;23;20032;-79
2022/06/25 14:15:01;;;;;;;0.77;0.73;;;;;;;26.12;39.40;96375.13;6154710;23;20022;-80
2022/06/25 14:17:29;;;;;;;0.77;0.63;;;;;;;26.09;38.65;96381.06;6154902;23;20422;-77
2022/06/25 14:19:57;;;;;;;1.83;0.70;;;;;;;26.03;39.47;96382.22;6154061;23;20044;-80
2022/06/25 14:22:25;;;;;;;2.88;1.23;;;;;;;26.01;39.45;96368.34;6154507;23;20100;-80
2022/06/25 14:27:39;;;;;;;2.17;0.80;;;;;;;25.98;39.64;96367.03;6154848;23;20043;-80
2022/06/25 14:30:08;;;;;;;2.15;0.65;;;;;;;25.97;39.31;96369.97;6154337;23;20096;-80
2022/06/25 14:32:35;;;;;;;1.15;0.90;;;;;;;25.93;39.19;96366.28;6154781;23;20406;-80
2022/06/25 14:35:03;;;;;;;0.95;0.57;;;;;;;25.89;39.23;96358.84;6155277;23;20100;-80
2022/06/25 14:43:03;;;;;;;0.85;0.77;;;;;;;25.91;40.68;96361.25;6154618;23;20470;-80
2022/06/25 14:45:31;;;;;;;0.50;0.50;;;;;;;25.93;40.06;96363.63;6154314;23;20028;-80
2022/06/25 14:47:58;;;;;;;0.45;0.45;;;;;;;25.92;38.91;96367.38;6154656;23;20078;-80
2022/06/25 14:50:26;;;;;;;0.50;0.50;;;;;;;25.88;38.83;96361.81;6154140;23;20104;-79
2022/06/25 14:52:54;;;;;;;1.67;0.60;;;;;;;25.85;38.81;96357.00;6154802;23;20045;-79
2022/06/25 14:55:21;;;;;;;1.42;0.60;;;;;;;25.83;38.91;96359.16;6154741;23;20028;-79
2022/06/25 14:57:49;;;;;;;0.45;0.30;;;;;;;25.81;40.55;96364.00;6154807;23;20053;-79
2022/06/25 15:00:18;;;;;;;1.00;0.80;;;;;;;25.78;39.04;96360.03;6154190;23;20056;-79
2022/06/25 15:02:48;;;;;;;0.40;0.40;;;;;;;25.76;39.34;96366.72;6154306;23;20088;-79
2022/06/25 15:05:19;;;;;;;1.90;0.68;;;;;;;25.75;39.40;96362.47;6154302;23;20025;-79
2022/06/25 15:07:47;;;;;;;0.95;0.60;;;;;;;25.76;39.41;96364.03;6154540;23;20092;-79
2022/06/25 15:10:15;;;;;;;1.30;0.73;;;;;;;25.76;40.15;96359.53;6156000;23;20025;-79
2022/06/25 15:12:43;;;;;;;0.63;0.63;;;;;;;25.75;39.71;96355.25;6156257;23;20025;-79
2022/06/25 15:15:11;;;;;;;0.75;0.73;;;;;;;25.77;40.28;96352.28;6156973;23;20101;-81
2022/06/25 15:17:41;;;;;;;0.82;0.82;;;;;;;25.81;39.96;96356.00;6160313;23;20056;-80
2022/06/25 15:20:10;;;;;;;0.85;0.60;;;;;;;25.81;38.88;96356.78;6158155;23;20030;-80
2022/06/25 15:22:37;;;;;;;0.85;0.77;;;;;;;25.81;39.64;96351.44;6158161;23;20113;-80
2022/06/25 15:25:06;;;;;;;0.93;0.60;;;;;;;25.82;39.43;96347.69;6158238;23;20056;-80
2022/06/25 15:27:33;;;;;;;1.00;0.90;;;;;;;25.82;41.26;96347.69;6156523;23;20028;-79
2022/06/25 15:30:02;;;;;;;1.13;0.80;;;;;;;25.84;40.10;96342.84;6156082;23;20024;-79
2022/06/25 15:32:29;;;;;;;0.65;0.52;;;;;;;25.86;39.35;96343.34;6156751;23;20030;-79
2022/06/25 15:34:58;;;;;;;0.50;0.50;;;;;;;25.84;39.34;96340.16;6156188;23;20421;-79
2022/06/25 15:37:26;;;;;;;0.70;0.70;;;;;;;25.85;40.34;96339.09;6156579;23;20402;-79
2022/06/25 15:39:53;;;;;;;0.85;0.73;;;;;;;25.85;38.53;96335.63;6156094;23;20109;-79
2022/06/25 15:42:21;;;;;;;1.45;0.82;;;;;;;25.87;38.65;96333.47;6155756;23;20084;-79
2022/06/25 15:44:49;;;;;;;1.02;0.70;;;;;;;25.89;38.40;96331.34;6156473;23;20053;-79
2022/06/25 15:47:16;;;;;;;0.80;0.52;;;;;;;25.93;39.12;96339.56;6155853;23;20037;-79
2022/06/25 15:49:51;;;;;;;1.60;1.20;;;;;;;25.94;40.24;96333.94;6156053;23;20047;-79
2022/06/25 15:52:20;;;;;;;1.55;0.98;;;;;;;25.96;40.16;96325.66;6156219;23;20462;-79
2022/06/25 15:54:48;;;;;;;2.15;1.05;;;;;;;25.97;40.44;96313.88;6155984;23;20101;-79
2022/06/25 15:57:15;;;;;;;1.45;1.00;;;;;;;25.99;40.41;96315.16;6156467;23;20025;-80
2022/06/25 15:59:44;;;;;;;0.80;0.52;;;;;;;26.03;40.41;96318.06;6156699;23;20022;-79
2022/06/25 16:02:12;;;;;;;0.75;0.45;;;;;;;26.07;40.86;96322.53;6155211;23;20041;-79
2022/06/25 16:04:39;;;;;;;1.08;0.60;;;;;;;26.08;39.63;96316.09;6156093;23;20060;-79
2022/06/25 16:07:07;;;;;;;0.65;0.65;;;;;;;26.08;39.03;96318.00;6155977;23;20052;-79
2022/06/25 16:09:37;;;;;;;0.85;0.43;;;;;;;26.07;39.41;96316.41;6155439;23;20021;-79
2022/06/25 16:12:06;;;;;;;0.75;0.75;;;;;;;26.07;39.91;96316.41;6155897;23;20041;-79